Time;durP1;ratioP1;P1;durP2;ratioP2;P2;SDS_P1;SDS_P2;PMS_P1;PMS_P2;Temp;Humidity;BMP_temperature;BMP_pressure;BME280_temperature;BME280_humidity;BME280_pressure;Samples;Min_cycle;Max_cycle;Signal;HPM_P1;HPM_P2
2021/01/26 15:54:50;;;;;;;18.75;11.57;;;2.00;85.10;;;;;;5093924;27;20370;-90
2021/01/26 15:57:16;;;;;;;20.40;10.60;;;1.80;86.50;;;;;;5069638;28;20021;-90
2021/01/26 15:59:41;;;;;;;19.67;11.50;;;1.80;87.50;;;;;;5070774;28;20519;-90
2021/01/26 16:02:07;;;;;;;22.67;12.93;;;1.90;88.20;;;;;;5072200;28;20073;-90
2021/01/26 16:04:33;;;;;;;23.45;12.68;;;1.90;88.50;;;;;;5074070;28;20021;-92
2021/01/26 16:06:58;;;;;;;17.00;11.07;;;2.00;88.80;;;;;;5071325;28;20096;-94
2021/01/26 16:09:25;;;;;;;16.42;10.32;;;2.00;89.00;;;;;;5069316;28;20013;-93
2021/01/26 16:11:51;;;;;;;19.77;11.40;;;2.10;89.20;;;;;;5070742;28;20028;-92
2021/01/26 16:14:16;;;;;;;19.08;11.15;;;2.10;89.00;;;;;;5069419;28;20028;-91
2021/01/26 16:16:42;;;;;;;16.73;10.30;;;2.10;88.80;;;;;;5070798;28;20017;-89
2021/01/26 16:19:09;;;;;;;21.13;11.20;;;2.20;88.90;;;;;;5070626;28;20373;-93
2021/01/26 16:21:35;;;;;;;19.60;11.75;;;2.20;88.50;;;;;;5070769;28;20028;-89
2021/01/26 16:24:00;;;;;;;20.48;11.55;;;2.20;88.70;;;;;;5069458;28;20024;-92
2021/01/26 16:26:26;;;;;;;20.02;11.98;;;2.20;88.70;;;;;;5070227;28;20099;-93
2021/01/26 16:28:52;;;;;;;19.10;12.02;;;2.20;88.70;;;;;;5068728;28;20025;-93
2021/01/26 16:31:18;;;;;;;21.05;11.45;;;2.30;88.70;;;;;;5069177;28;20025;-93
2021/01/26 16:33:43;;;;;;;16.35;10.90;;;2.30;88.50;;;;;;5069394;28;20036;-94
2021/01/26 16:36:09;;;;;;;19.05;12.75;;;2.30;88.60;;;;;;5070030;28;20021;-91
2021/01/26 16:38:35;;;;;;;22.92;14.18;;;2.30;88.50;;;;;;5070819;28;20021;-93
2021/01/26 16:41:01;;;;;;;24.77;13.88;;;2.30;88.10;;;;;;5069201;28;20053;-92
2021/01/26 16:43:27;;;;;;;26.95;14.98;;;2.30;88.20;;;;;;5068861;28;20025;-94
2021/01/26 16:45:54;;;;;;;27.98;15.82;;;2.40;87.90;;;;;;5069058;28;20032;-93
2021/01/26 16:48:20;;;;;;;38.13;18.40;;;2.40;88.10;;;;;;5070381;28;20049;-95
2021/01/26 16:50:46;;;;;;;40.22;19.90;;;2.40;87.60;;;;;;5068976;28;20481;-94
2021/01/26 16:53:16;;;;;;;36.50;18.63;;;2.40;87.40;;;;;;5068903;28;20091;-94
2021/01/26 16:55:43;;;;;;;25.48;14.80;;;2.40;87.30;;;;;;5068315;28;20020;-94
2021/01/26 16:58:10;;;;;;;20.20;12.60;;;2.40;87.40;;;;;;5068464;28;20021;-93
2021/01/26 17:00:36;;;;;;;21.75;13.93;;;2.40;87.60;;;;;;5069718;28;20095;-95
2021/01/26 17:03:02;;;;;;;24.25;15.02;;;2.30;87.60;;;;;;5067329;28;20025;-95
2021/01/26 17:05:29;;;;;;;22.80;15.63;;;2.30;87.50;;;;;;5059544;28;20028;-92
2021/01/26 17:07:55;;;;;;;23.50;15.02;;;2.20;87.10;;;;;;5055582;28;20350;-93
2021/01/26 17:10:21;;;;;;;24.90;15.27;;;2.20;87.90;;;;;;5055655;28;20029;-93
2021/01/26 17:12:47;;;;;;;25.77;14.20;;;2.10;87.30;;;;;;5055251;28;20469;-93
2021/01/26 17:15:15;;;;;;;33.40;18.30;;;2.10;87.40;;;;;;5055070;28;20041;-94
2021/01/26 17:17:41;;;;;;;42.33;19.90;;;2.10;87.30;;;;;;5056038;28;20432;-95
2021/01/26 17:20:13;;;;;;;48.50;25.50;;;2.00;87.50;;;;;;5055411;28;20029;-93
2021/01/26 17:22:39;;;;;;;50.63;27.70;;;2.00;87.70;;;;;;5058223;28;20094;-92
2021/01/26 17:25:06;;;;;;;43.70;23.63;;;2.00;87.40;;;;;;5067406;28;20412;-91
2021/01/26 17:27:31;;;;;;;38.55;21.67;;;2.00;87.60;;;;;;5061782;28;20017;-94
2021/01/26 17:29:57;;;;;;;36.50;22.00;;;1.90;87.70;;;;;;5055852;28;20359;-93
2021/01/26 17:32:23;;;;;;;35.40;20.65;;;2.00;87.90;;;;;;5055493;28;20059;-93
2021/01/26 17:34:50;;;;;;;31.33;19.02;;;1.90;87.90;;;;;;5054628;28;20025;-93
2021/01/26 17:37:16;;;;;;;28.60;18.00;;;1.90;87.90;;;;;;5054959;28;20021;-93
2021/01/26 17:39:41;;;;;;;29.55;16.08;;;1.90;87.80;;;;;;5054927;28;20021;-94
2021/01/26 17:42:07;;;;;;;24.73;14.85;;;1.90;87.80;;;;;;5055080;28;20446;-94
2021/01/26 17:44:35;;;;;;;18.17;12.85;;;1.80;87.80;;;;;;5054531;28;20473;-94
2021/01/26 17:47:02;;;;;;;18.30;11.75;;;1.70;87.90;;;;;;5054704;28;20025;-94
2021/01/26 17:49:28;;;;;;;18.08;11.65;;;1.70;88.00;;;;;;5055077;28;20021;-93
2021/01/26 17:51:54;;;;;;;19.88;11.02;;;1.70;88.10;;;;;;5055037;28;20025;-96
2021/01/26 17:54:28;;;;;;;19.25;11.07;;;1.60;88.10;;;;;;5067690;28;20057;-96
2021/01/26 17:56:54;;;;;;;;;;;1.60;88.00;;;;;;5044245;28;20033;-96
2021/01/26 17:59:20;;;;;;;15.27;8.65;;;1.50;88.00;;;;;;5054453;28;19935;-94
2021/01/26 18:01:46;;;;;;;16.30;10.10;;;1.40;88.50;;;;;;5048965;28;20060;-95
2021/01/26 18:04:13;;;;;;;17.08;10.93;;;1.40;88.70;;;;;;5053161;28;20025;-94
2021/01/26 18:06:39;;;;;;;16.75;10.60;;;1.30;88.80;;;;;;5048011;28;20384;-95
2021/01/26 18:09:05;;;;;;;18.92;11.18;;;1.30;88.90;;;;;;5048807;28;20024;-95
2021/01/26 20:20:30;;;;;;;23.73;13.63;;;-1.60;88.20;;;;;;5071996;27;20376;-92
